<?xml version="1.0" encoding="UTF-8" standalone="no" ?>
<gpx xmlns="http://www.topografix.com/GPX/1/1" xmlns:xsi="http://www.w3.org/2001/XMLSchema-instance" xsi:schemaLocation="http://www.topografix.com/GPX/1/1 http://www.topografix.com/GPX/1/1/gpx.xsd" version="1.1" creator="VisuGPX - https://www.visugpx.com">
  <metadata>
    <name>Plateau d'Emparis en partant du Chazelet</name>
    <desc><![CDATA[Plateau d'Emparis en partant du Chazelet]]></desc>
  </metadata>
  <trk>
    <name><![CDATA[11652934-Emparis en partant du chazelet]]></name>
    <trkseg>
      <trkpt lat="45.05944" lon="6.28101">
        <ele>1804</ele>
        <time>2020-07-11T12:31:55Z</time>
      </trkpt>
      <trkpt lat="45.05838" lon="6.28127">
        <ele>1796</ele>
        <time>2020-07-11T12:33:21Z</time>
      </trkpt>
      <trkpt lat="45.05736" lon="6.28181">
        <ele>1788</ele>
        <time>2020-07-11T12:34:48Z</time>
      </trkpt>
      <trkpt lat="45.05662" lon="6.28282">
        <ele>1784</ele>
        <time>2020-07-11T12:36:11Z</time>
      </trkpt>
      <trkpt lat="45.05591" lon="6.28329">
        <ele>1773</ele>
        <time>2020-07-11T12:37:13Z</time>
      </trkpt>
      <trkpt lat="45.05488" lon="6.2837">
        <ele>1771</ele>
        <time>2020-07-11T12:38:39Z</time>
      </trkpt>
      <trkpt lat="45.05573" lon="6.2826">
        <ele>1754</ele>
        <time>2020-07-11T12:40:11Z</time>
      </trkpt>
      <trkpt lat="45.05644" lon="6.28144">
        <ele>1751</ele>
        <time>2020-07-11T12:41:38Z</time>
      </trkpt>
      <trkpt lat="45.05752" lon="6.28061">
        <ele>1756</ele>
        <time>2020-07-11T12:43:16Z</time>
      </trkpt>
      <trkpt lat="45.05849" lon="6.27977">
        <ele>1756</ele>
        <time>2020-07-11T12:44:48Z</time>
      </trkpt>
      <trkpt lat="45.05926" lon="6.279">
        <ele>1760</ele>
        <time>2020-07-11T12:46:03Z</time>
      </trkpt>
      <trkpt lat="45.06005" lon="6.27876">
        <ele>1766</ele>
        <time>2020-07-11T12:47:08Z</time>
      </trkpt>
      <trkpt lat="45.0609" lon="6.27838">
        <ele>1770</ele>
        <time>2020-07-11T12:48:19Z</time>
      </trkpt>
      <trkpt lat="45.06129" lon="6.27835">
        <ele>1773</ele>
        <time>2020-07-11T12:48:50Z</time>
      </trkpt>
      <trkpt lat="45.0614" lon="6.27868">
        <ele>1780</ele>
        <time>2020-07-11T12:49:11Z</time>
      </trkpt>
      <trkpt lat="45.06211" lon="6.27827">
        <ele>1784</ele>
        <time>2020-07-11T12:50:12Z</time>
      </trkpt>
      <trkpt lat="45.06299" lon="6.27805">
        <ele>1793</ele>
        <time>2020-07-11T12:51:24Z</time>
      </trkpt>
      <trkpt lat="45.06241" lon="6.27861">
        <ele>1795</ele>
        <time>2020-07-11T12:52:20Z</time>
      </trkpt>
      <trkpt lat="45.06335" lon="6.27827">
        <ele>1802</ele>
        <time>2020-07-11T12:53:38Z</time>
      </trkpt>
      <trkpt lat="45.06394" lon="6.27827">
        <ele>1811</ele>
        <time>2020-07-11T12:54:25Z</time>
      </trkpt>
      <trkpt lat="45.06458" lon="6.27812">
        <ele>1815</ele>
        <time>2020-07-11T12:55:17Z</time>
      </trkpt>
      <trkpt lat="45.06369" lon="6.27889">
        <ele>1822</ele>
        <time>2020-07-11T12:56:41Z</time>
      </trkpt>
      <trkpt lat="45.06337" lon="6.27915">
        <ele>1822</ele>
        <time>2020-07-11T12:57:10Z</time>
      </trkpt>
      <trkpt lat="45.06329" lon="6.27998">
        <ele>1821</ele>
        <time>2020-07-11T12:57:57Z</time>
      </trkpt>
      <trkpt lat="45.06346" lon="6.28012">
        <ele>1825</ele>
        <time>2020-07-11T12:58:13Z</time>
      </trkpt>
      <trkpt lat="45.0639" lon="6.27992">
        <ele>1838</ele>
        <time>2020-07-11T12:58:50Z</time>
      </trkpt>
      <trkpt lat="45.06506" lon="6.27943">
        <ele>1855</ele>
        <time>2020-07-11T13:00:27Z</time>
      </trkpt>
      <trkpt lat="45.0635" lon="6.28029">
        <ele>1826</ele>
        <time>2020-07-11T13:02:41Z</time>
      </trkpt>
      <trkpt lat="45.06606" lon="6.27891">
        <ele>1860</ele>
        <time>2020-07-11T13:06:20Z</time>
      </trkpt>
      <trkpt lat="45.06714" lon="6.27844">
        <ele>1879</ele>
        <time>2020-07-11T13:07:51Z</time>
      </trkpt>
      <trkpt lat="45.06755" lon="6.27745">
        <ele>1872</ele>
        <time>2020-07-11T13:08:56Z</time>
      </trkpt>
      <trkpt lat="45.06843" lon="6.27694">
        <ele>1881</ele>
        <time>2020-07-11T13:10:12Z</time>
      </trkpt>
      <trkpt lat="45.06899" lon="6.27612">
        <ele>1882</ele>
        <time>2020-07-11T13:11:16Z</time>
      </trkpt>
      <trkpt lat="45.06963" lon="6.27548">
        <ele>1879</ele>
        <time>2020-07-11T13:12:19Z</time>
      </trkpt>
      <trkpt lat="45.07096" lon="6.27535">
        <ele>1892</ele>
        <time>2020-07-11T13:14:06Z</time>
      </trkpt>
      <trkpt lat="45.07147" lon="6.27505">
        <ele>1888</ele>
        <time>2020-07-11T13:14:50Z</time>
      </trkpt>
      <trkpt lat="45.07228" lon="6.27501">
        <ele>1893</ele>
        <time>2020-07-11T13:15:55Z</time>
      </trkpt>
      <trkpt lat="45.07296" lon="6.27518">
        <ele>1910</ele>
        <time>2020-07-11T13:16:50Z</time>
      </trkpt>
      <trkpt lat="45.07244" lon="6.27443">
        <ele>1897</ele>
        <time>2020-07-11T13:17:50Z</time>
      </trkpt>
      <trkpt lat="45.07207" lon="6.27389">
        <ele>1887</ele>
        <time>2020-07-11T13:18:32Z</time>
      </trkpt>
      <trkpt lat="45.07211" lon="6.27353">
        <ele>1885</ele>
        <time>2020-07-11T13:18:53Z</time>
      </trkpt>
      <trkpt lat="45.07307" lon="6.27286">
        <ele>1887</ele>
        <time>2020-07-11T13:20:19Z</time>
      </trkpt>
      <trkpt lat="45.07417" lon="6.27237">
        <ele>1897</ele>
        <time>2020-07-11T13:21:51Z</time>
      </trkpt>
      <trkpt lat="45.07443" lon="6.27177">
        <ele>1897</ele>
        <time>2020-07-11T13:22:31Z</time>
      </trkpt>
      <trkpt lat="45.07501" lon="6.27078">
        <ele>1898</ele>
        <time>2020-07-11T13:23:43Z</time>
      </trkpt>
      <trkpt lat="45.07626" lon="6.27018">
        <ele>1916</ele>
        <time>2020-07-11T13:25:29Z</time>
      </trkpt>
      <trkpt lat="45.07691" lon="6.26932">
        <ele>1906</ele>
        <time>2020-07-11T13:26:40Z</time>
      </trkpt>
      <trkpt lat="45.07752" lon="6.26842">
        <ele>1900</ele>
        <time>2020-07-11T13:27:51Z</time>
      </trkpt>
      <trkpt lat="45.07822" lon="6.26773">
        <ele>1895</ele>
        <time>2020-07-11T13:28:59Z</time>
      </trkpt>
      <trkpt lat="45.07916" lon="6.26739">
        <ele>1899</ele>
        <time>2020-07-11T13:30:17Z</time>
      </trkpt>
      <trkpt lat="45.07978" lon="6.26679">
        <ele>1899</ele>
        <time>2020-07-11T13:31:17Z</time>
      </trkpt>
      <trkpt lat="45.08073" lon="6.26604">
        <ele>1898</ele>
        <time>2020-07-11T13:32:44Z</time>
      </trkpt>
      <trkpt lat="45.08163" lon="6.26559">
        <ele>1898</ele>
        <time>2020-07-11T13:34:01Z</time>
      </trkpt>
      <trkpt lat="45.08195" lon="6.26464">
        <ele>1898</ele>
        <time>2020-07-11T13:35:00Z</time>
      </trkpt>
      <trkpt lat="45.08287" lon="6.26314">
        <ele>1905</ele>
        <time>2020-07-11T13:36:52Z</time>
      </trkpt>
      <trkpt lat="45.0836" lon="6.2622">
        <ele>1911</ele>
        <time>2020-07-11T13:38:11Z</time>
      </trkpt>
      <trkpt lat="45.08445" lon="6.26067">
        <ele>1912</ele>
        <time>2020-07-11T13:40:01Z</time>
      </trkpt>
      <trkpt lat="45.08495" lon="6.26011">
        <ele>1913</ele>
        <time>2020-07-11T13:40:52Z</time>
      </trkpt>
      <trkpt lat="45.0859" lon="6.25919">
        <ele>1918</ele>
        <time>2020-07-11T13:42:25Z</time>
      </trkpt>
      <trkpt lat="45.08723" lon="6.25812">
        <ele>1931</ele>
        <time>2020-07-11T13:44:27Z</time>
      </trkpt>
      <trkpt lat="45.08851" lon="6.25634">
        <ele>1934</ele>
        <time>2020-07-11T13:46:51Z</time>
      </trkpt>
      <trkpt lat="45.08949" lon="6.25492">
        <ele>1940</ele>
        <time>2020-07-11T13:48:43Z</time>
      </trkpt>
      <trkpt lat="45.09002" lon="6.25441">
        <ele>1943</ele>
        <time>2020-07-11T13:49:34Z</time>
      </trkpt>
      <trkpt lat="45.09063" lon="6.25475">
        <ele>1952</ele>
        <time>2020-07-11T13:50:27Z</time>
      </trkpt>
      <trkpt lat="45.09066" lon="6.25447">
        <ele>1950</ele>
        <time>2020-07-11T13:50:43Z</time>
      </trkpt>
      <trkpt lat="45.09054" lon="6.25394">
        <ele>1947</ele>
        <time>2020-07-11T13:51:14Z</time>
      </trkpt>
      <trkpt lat="45.0911" lon="6.25426">
        <ele>1952</ele>
        <time>2020-07-11T13:52:03Z</time>
      </trkpt>
      <trkpt lat="45.09108" lon="6.25359">
        <ele>1951</ele>
        <time>2020-07-11T13:52:40Z</time>
      </trkpt>
      <trkpt lat="45.09149" lon="6.25256">
        <ele>1956</ele>
        <time>2020-07-11T13:53:47Z</time>
      </trkpt>
      <trkpt lat="45.09163" lon="6.25166">
        <ele>1955</ele>
        <time>2020-07-11T13:54:39Z</time>
      </trkpt>
      <trkpt lat="45.09185" lon="6.25087">
        <ele>1961</ele>
        <time>2020-07-11T13:55:27Z</time>
      </trkpt>
      <trkpt lat="45.09202" lon="6.24989">
        <ele>1968</ele>
        <time>2020-07-11T13:56:24Z</time>
      </trkpt>
      <trkpt lat="45.09263" lon="6.24904">
        <ele>1972</ele>
        <time>2020-07-11T13:57:33Z</time>
      </trkpt>
      <trkpt lat="45.09289" lon="6.24868">
        <ele>1976</ele>
        <time>2020-07-11T13:58:02Z</time>
      </trkpt>
      <trkpt lat="45.09354" lon="6.2482">
        <ele>1984</ele>
        <time>2020-07-11T13:59:01Z</time>
      </trkpt>
      <trkpt lat="45.09415" lon="6.24787">
        <ele>1991</ele>
        <time>2020-07-11T13:59:53Z</time>
      </trkpt>
      <trkpt lat="45.09501" lon="6.24725">
        <ele>1997</ele>
        <time>2020-07-11T14:01:10Z</time>
      </trkpt>
      <trkpt lat="45.09587" lon="6.24675">
        <ele>2002</ele>
        <time>2020-07-11T14:02:25Z</time>
      </trkpt>
      <trkpt lat="45.09662" lon="6.2464">
        <ele>2009</ele>
        <time>2020-07-11T14:03:28Z</time>
      </trkpt>
      <trkpt lat="45.09699" lon="6.24563">
        <ele>2016</ele>
        <time>2020-07-11T14:04:21Z</time>
      </trkpt>
      <trkpt lat="45.09727" lon="6.24527">
        <ele>2021</ele>
        <time>2020-07-11T14:04:51Z</time>
      </trkpt>
      <trkpt lat="45.09729" lon="6.24488">
        <ele>2025</ele>
        <time>2020-07-11T14:05:13Z</time>
      </trkpt>
      <trkpt lat="45.09688" lon="6.2446">
        <ele>2030</ele>
        <time>2020-07-11T14:05:49Z</time>
      </trkpt>
      <trkpt lat="45.09664" lon="6.2442">
        <ele>2040</ele>
        <time>2020-07-11T14:06:19Z</time>
      </trkpt>
      <trkpt lat="45.09656" lon="6.24389">
        <ele>2048</ele>
        <time>2020-07-11T14:06:38Z</time>
      </trkpt>
      <trkpt lat="45.09693" lon="6.2436">
        <ele>2050</ele>
        <time>2020-07-11T14:07:12Z</time>
      </trkpt>
      <trkpt lat="45.09664" lon="6.24309">
        <ele>2062</ele>
        <time>2020-07-11T14:07:49Z</time>
      </trkpt>
      <trkpt lat="45.09616" lon="6.24268">
        <ele>2071</ele>
        <time>2020-07-11T14:08:34Z</time>
      </trkpt>
      <trkpt lat="45.09583" lon="6.2422">
        <ele>2080</ele>
        <time>2020-07-11T14:09:11Z</time>
      </trkpt>
      <trkpt lat="45.09561" lon="6.24131">
        <ele>2100</ele>
        <time>2020-07-11T14:10:05Z</time>
      </trkpt>
      <trkpt lat="45.09582" lon="6.24108">
        <ele>2102</ele>
        <time>2020-07-11T14:10:26Z</time>
      </trkpt>
      <trkpt lat="45.09562" lon="6.24061">
        <ele>2117</ele>
        <time>2020-07-11T14:10:57Z</time>
      </trkpt>
      <trkpt lat="45.09529" lon="6.24061">
        <ele>2123</ele>
        <time>2020-07-11T14:11:23Z</time>
      </trkpt>
      <trkpt lat="45.09466" lon="6.24083">
        <ele>2132</ele>
        <time>2020-07-11T14:12:15Z</time>
      </trkpt>
      <trkpt lat="45.0941" lon="6.24089">
        <ele>2143</ele>
        <time>2020-07-11T14:13:00Z</time>
      </trkpt>
      <trkpt lat="45.09346" lon="6.24057">
        <ele>2154</ele>
        <time>2020-07-11T14:13:55Z</time>
      </trkpt>
      <trkpt lat="45.09363" lon="6.2403">
        <ele>2159</ele>
        <time>2020-07-11T14:14:15Z</time>
      </trkpt>
      <trkpt lat="45.09362" lon="6.23973">
        <ele>2171</ele>
        <time>2020-07-11T14:14:47Z</time>
      </trkpt>
      <trkpt lat="45.0939" lon="6.23932">
        <ele>2178</ele>
        <time>2020-07-11T14:15:20Z</time>
      </trkpt>
      <trkpt lat="45.09399" lon="6.23891">
        <ele>2186</ele>
        <time>2020-07-11T14:15:44Z</time>
      </trkpt>
      <trkpt lat="45.0942" lon="6.23844">
        <ele>2194</ele>
        <time>2020-07-11T14:16:15Z</time>
      </trkpt>
      <trkpt lat="45.09433" lon="6.23783">
        <ele>2207</ele>
        <time>2020-07-11T14:16:51Z</time>
      </trkpt>
      <trkpt lat="45.0947" lon="6.23742">
        <ele>2213</ele>
        <time>2020-07-11T14:17:29Z</time>
      </trkpt>
      <trkpt lat="45.09516" lon="6.23699">
        <ele>2220</ele>
        <time>2020-07-11T14:18:13Z</time>
      </trkpt>
      <trkpt lat="45.09582" lon="6.2366">
        <ele>2222</ele>
        <time>2020-07-11T14:19:10Z</time>
      </trkpt>
      <trkpt lat="45.0963" lon="6.2357">
        <ele>2239</ele>
        <time>2020-07-11T14:20:14Z</time>
      </trkpt>
      <trkpt lat="45.09715" lon="6.23543">
        <ele>2240</ele>
        <time>2020-07-11T14:21:24Z</time>
      </trkpt>
      <trkpt lat="45.09787" lon="6.23482">
        <ele>2256</ele>
        <time>2020-07-11T14:22:31Z</time>
      </trkpt>
      <trkpt lat="45.09859" lon="6.23486">
        <ele>2256</ele>
        <time>2020-07-11T14:23:29Z</time>
      </trkpt>
      <trkpt lat="45.09964" lon="6.23418">
        <ele>2276</ele>
        <time>2020-07-11T14:25:01Z</time>
      </trkpt>
      <trkpt lat="45.09865" lon="6.23392">
        <ele>2287</ele>
        <time>2020-07-11T14:26:22Z</time>
      </trkpt>
      <trkpt lat="45.09962" lon="6.23331">
        <ele>2301</ele>
        <time>2020-07-11T14:27:47Z</time>
      </trkpt>
      <trkpt lat="45.09865" lon="6.23298">
        <ele>2313</ele>
        <time>2020-07-11T14:29:07Z</time>
      </trkpt>
      <trkpt lat="45.09977" lon="6.23237">
        <ele>2315</ele>
        <time>2020-07-11T14:30:43Z</time>
      </trkpt>
      <trkpt lat="45.09924" lon="6.2319">
        <ele>2315</ele>
        <time>2020-07-11T14:31:33Z</time>
      </trkpt>
      <trkpt lat="45.09888" lon="6.23129">
        <ele>2305</ele>
        <time>2020-07-11T14:32:18Z</time>
      </trkpt>
      <trkpt lat="45.0987" lon="6.23118">
        <ele>2303</ele>
        <time>2020-07-11T14:32:33Z</time>
      </trkpt>
      <trkpt lat="45.09839" lon="6.23115">
        <ele>2301</ele>
        <time>2020-07-11T14:32:58Z</time>
      </trkpt>
      <trkpt lat="45.09746" lon="6.23088">
        <ele>2290</ele>
        <time>2020-07-11T14:34:14Z</time>
      </trkpt>
      <trkpt lat="45.09673" lon="6.2312">
        <ele>2289</ele>
        <time>2020-07-11T14:35:15Z</time>
      </trkpt>
      <trkpt lat="45.09623" lon="6.23164">
        <ele>2287</ele>
        <time>2020-07-11T14:36:03Z</time>
      </trkpt>
      <trkpt lat="45.09564" lon="6.23242">
        <ele>2289</ele>
        <time>2020-07-11T14:37:07Z</time>
      </trkpt>
      <trkpt lat="45.09503" lon="6.23294">
        <ele>2286</ele>
        <time>2020-07-11T14:38:04Z</time>
      </trkpt>
      <trkpt lat="45.09441" lon="6.23318">
        <ele>2283</ele>
        <time>2020-07-11T14:38:56Z</time>
      </trkpt>
      <trkpt lat="45.094" lon="6.23332">
        <ele>2279</ele>
        <time>2020-07-11T14:39:29Z</time>
      </trkpt>
      <trkpt lat="45.09358" lon="6.23375">
        <ele>2275</ele>
        <time>2020-07-11T14:40:11Z</time>
      </trkpt>
      <trkpt lat="45.09337" lon="6.23354">
        <ele>2271</ele>
        <time>2020-07-11T14:40:31Z</time>
      </trkpt>
      <trkpt lat="45.09353" lon="6.23313">
        <ele>2273</ele>
        <time>2020-07-11T14:40:58Z</time>
      </trkpt>
      <trkpt lat="45.09328" lon="6.23311">
        <ele>2272</ele>
        <time>2020-07-11T14:41:18Z</time>
      </trkpt>
      <trkpt lat="45.09298" lon="6.23324">
        <ele>2273</ele>
        <time>2020-07-11T14:41:43Z</time>
      </trkpt>
      <trkpt lat="45.09261" lon="6.23334">
        <ele>2273</ele>
        <time>2020-07-11T14:42:13Z</time>
      </trkpt>
      <trkpt lat="45.09213" lon="6.23339">
        <ele>2276</ele>
        <time>2020-07-11T14:42:52Z</time>
      </trkpt>
      <trkpt lat="45.091" lon="6.23318">
        <ele>2278</ele>
        <time>2020-07-11T14:44:23Z</time>
      </trkpt>
      <trkpt lat="45.09028" lon="6.23285">
        <ele>2279</ele>
        <time>2020-07-11T14:45:24Z</time>
      </trkpt>
      <trkpt lat="45.08962" lon="6.2327">
        <ele>2278</ele>
        <time>2020-07-11T14:46:17Z</time>
      </trkpt>
      <trkpt lat="45.08879" lon="6.23261">
        <ele>2276</ele>
        <time>2020-07-11T14:47:24Z</time>
      </trkpt>
      <trkpt lat="45.08785" lon="6.23257">
        <ele>2273</ele>
        <time>2020-07-11T14:48:39Z</time>
      </trkpt>
      <trkpt lat="45.08692" lon="6.2323">
        <ele>2270</ele>
        <time>2020-07-11T14:49:55Z</time>
      </trkpt>
      <trkpt lat="45.08619" lon="6.23205">
        <ele>2266</ele>
        <time>2020-07-11T14:50:55Z</time>
      </trkpt>
      <trkpt lat="45.0856" lon="6.23126">
        <ele>2265</ele>
        <time>2020-07-11T14:52:00Z</time>
      </trkpt>
      <trkpt lat="45.0851" lon="6.23002">
        <ele>2260</ele>
        <time>2020-07-11T14:53:21Z</time>
      </trkpt>
      <trkpt lat="45.0846" lon="6.22909">
        <ele>2257</ele>
        <time>2020-07-11T14:54:27Z</time>
      </trkpt>
      <trkpt lat="45.08393" lon="6.22793">
        <ele>2248</ele>
        <time>2020-07-11T14:55:52Z</time>
      </trkpt>
      <trkpt lat="45.08373" lon="6.22748">
        <ele>2246</ele>
        <time>2020-07-11T14:56:22Z</time>
      </trkpt>
      <trkpt lat="45.083" lon="6.22681">
        <ele>2242</ele>
        <time>2020-07-11T14:57:32Z</time>
      </trkpt>
      <trkpt lat="45.08204" lon="6.22607">
        <ele>2237</ele>
        <time>2020-07-11T14:58:59Z</time>
      </trkpt>
      <trkpt lat="45.08163" lon="6.22585">
        <ele>2232</ele>
        <time>2020-07-11T14:59:34Z</time>
      </trkpt>
      <trkpt lat="45.08059" lon="6.22464">
        <ele>2231</ele>
        <time>2020-07-11T15:01:22Z</time>
      </trkpt>
      <trkpt lat="45.07988" lon="6.22356">
        <ele>2224</ele>
        <time>2020-07-11T15:02:45Z</time>
      </trkpt>
      <trkpt lat="45.07921" lon="6.22208">
        <ele>2220</ele>
        <time>2020-07-11T15:04:25Z</time>
      </trkpt>
      <trkpt lat="45.07845" lon="6.22003">
        <ele>2217</ele>
        <time>2020-07-11T15:06:36Z</time>
      </trkpt>
      <trkpt lat="45.07802" lon="6.21809">
        <ele>2224</ele>
        <time>2020-07-11T15:08:31Z</time>
      </trkpt>
      <trkpt lat="45.0778" lon="6.21744">
        <ele>2221</ele>
        <time>2020-07-11T15:09:11Z</time>
      </trkpt>
      <trkpt lat="45.07676" lon="6.21403">
        <ele>2216</ele>
        <time>2020-07-11T15:12:41Z</time>
      </trkpt>
      <trkpt lat="45.07549" lon="6.21185">
        <ele>2218</ele>
        <time>2020-07-11T15:15:21Z</time>
      </trkpt>
      <trkpt lat="45.0757" lon="6.20991">
        <ele>2232</ele>
        <time>2020-07-11T15:17:12Z</time>
      </trkpt>
      <trkpt lat="45.07543" lon="6.20888">
        <ele>2240</ele>
        <time>2020-07-11T15:18:14Z</time>
      </trkpt>
      <trkpt lat="45.0747" lon="6.20811">
        <ele>2241</ele>
        <time>2020-07-11T15:19:27Z</time>
      </trkpt>
      <trkpt lat="45.07425" lon="6.20635">
        <ele>2247</ele>
        <time>2020-07-11T15:21:13Z</time>
      </trkpt>
      <trkpt lat="45.07355" lon="6.20524">
        <ele>2251</ele>
        <time>2020-07-11T15:22:37Z</time>
      </trkpt>
      <trkpt lat="45.07172" lon="6.2058">
        <ele>2238</ele>
        <time>2020-07-11T15:25:07Z</time>
      </trkpt>
      <trkpt lat="45.07051" lon="6.20607">
        <ele>2247</ele>
        <time>2020-07-11T15:26:45Z</time>
      </trkpt>
      <trkpt lat="45.07069" lon="6.20674">
        <ele>2229</ele>
        <time>2020-07-11T15:27:26Z</time>
      </trkpt>
      <trkpt lat="45.07069" lon="6.20779">
        <ele>2217</ele>
        <time>2020-07-11T15:28:25Z</time>
      </trkpt>
      <trkpt lat="45.07022" lon="6.20917">
        <ele>2215</ele>
        <time>2020-07-11T15:29:52Z</time>
      </trkpt>
      <trkpt lat="45.06988" lon="6.21025">
        <ele>2212</ele>
        <time>2020-07-11T15:30:58Z</time>
      </trkpt>
      <trkpt lat="45.06946" lon="6.21089">
        <ele>2210</ele>
        <time>2020-07-11T15:31:48Z</time>
      </trkpt>
      <trkpt lat="45.06898" lon="6.21234">
        <ele>2207</ele>
        <time>2020-07-11T15:33:18Z</time>
      </trkpt>
      <trkpt lat="45.06855" lon="6.21354">
        <ele>2207</ele>
        <time>2020-07-11T15:34:35Z</time>
      </trkpt>
      <trkpt lat="45.06772" lon="6.21477">
        <ele>2210</ele>
        <time>2020-07-11T15:36:11Z</time>
      </trkpt>
      <trkpt lat="45.067" lon="6.21579">
        <ele>2208</ele>
        <time>2020-07-11T15:37:32Z</time>
      </trkpt>
      <trkpt lat="45.06669" lon="6.21663">
        <ele>2205</ele>
        <time>2020-07-11T15:38:26Z</time>
      </trkpt>
      <trkpt lat="45.06586" lon="6.21783">
        <ele>2205</ele>
        <time>2020-07-11T15:40:01Z</time>
      </trkpt>
      <trkpt lat="45.06573" lon="6.21997">
        <ele>2194</ele>
        <time>2020-07-11T15:42:02Z</time>
      </trkpt>
      <trkpt lat="45.06548" lon="6.22071">
        <ele>2197</ele>
        <time>2020-07-11T15:42:49Z</time>
      </trkpt>
      <trkpt lat="45.06498" lon="6.22237">
        <ele>2219</ele>
        <time>2020-07-11T15:44:31Z</time>
      </trkpt>
      <trkpt lat="45.06465" lon="6.2237">
        <ele>2236</ele>
        <time>2020-07-11T15:45:51Z</time>
      </trkpt>
      <trkpt lat="45.06454" lon="6.22477">
        <ele>2247</ele>
        <time>2020-07-11T15:46:52Z</time>
      </trkpt>
      <trkpt lat="45.06399" lon="6.2261">
        <ele>2259</ele>
        <time>2020-07-11T15:48:19Z</time>
      </trkpt>
      <trkpt lat="45.06339" lon="6.2275">
        <ele>2271</ele>
        <time>2020-07-11T15:49:51Z</time>
      </trkpt>
      <trkpt lat="45.06303" lon="6.22875">
        <ele>2281</ele>
        <time>2020-07-11T15:51:08Z</time>
      </trkpt>
      <trkpt lat="45.06305" lon="6.23003">
        <ele>2290</ele>
        <time>2020-07-11T15:52:20Z</time>
      </trkpt>
      <trkpt lat="45.06287" lon="6.23199">
        <ele>2305</ele>
        <time>2020-07-11T15:54:12Z</time>
      </trkpt>
      <trkpt lat="45.0629" lon="6.23347">
        <ele>2309</ele>
        <time>2020-07-11T15:55:36Z</time>
      </trkpt>
      <trkpt lat="45.06283" lon="6.23508">
        <ele>2314</ele>
        <time>2020-07-11T15:57:07Z</time>
      </trkpt>
      <trkpt lat="45.06283" lon="6.23623">
        <ele>2319</ele>
        <time>2020-07-11T15:58:12Z</time>
      </trkpt>
      <trkpt lat="45.06213" lon="6.23704">
        <ele>2336</ele>
        <time>2020-07-11T15:59:24Z</time>
      </trkpt>
      <trkpt lat="45.06125" lon="6.23794">
        <ele>2354</ele>
        <time>2020-07-11T16:00:51Z</time>
      </trkpt>
      <trkpt lat="45.06029" lon="6.23827">
        <ele>2363</ele>
        <time>2020-07-11T16:02:10Z</time>
      </trkpt>
      <trkpt lat="45.05988" lon="6.23768">
        <ele>2368</ele>
        <time>2020-07-11T16:02:57Z</time>
      </trkpt>
      <trkpt lat="45.05928" lon="6.23671">
        <ele>2380</ele>
        <time>2020-07-11T16:04:10Z</time>
      </trkpt>
      <trkpt lat="45.0586" lon="6.23615">
        <ele>2389</ele>
        <time>2020-07-11T16:05:13Z</time>
      </trkpt>
      <trkpt lat="45.05807" lon="6.23569">
        <ele>2398</ele>
        <time>2020-07-11T16:06:03Z</time>
      </trkpt>
      <trkpt lat="45.05744" lon="6.23523">
        <ele>2405</ele>
        <time>2020-07-11T16:07:00Z</time>
      </trkpt>
      <trkpt lat="45.05701" lon="6.23401">
        <ele>2412</ele>
        <time>2020-07-11T16:08:17Z</time>
      </trkpt>
      <trkpt lat="45.05645" lon="6.23263">
        <ele>2414</ele>
        <time>2020-07-11T16:09:47Z</time>
      </trkpt>
      <trkpt lat="45.05584" lon="6.23169">
        <ele>2423</ele>
        <time>2020-07-11T16:10:59Z</time>
      </trkpt>
      <trkpt lat="45.05483" lon="6.2314">
        <ele>2429</ele>
        <time>2020-07-11T16:12:21Z</time>
      </trkpt>
      <trkpt lat="45.05315" lon="6.23008">
        <ele>2449</ele>
        <time>2020-07-11T16:14:55Z</time>
      </trkpt>
      <trkpt lat="45.05258" lon="6.22898">
        <ele>2458</ele>
        <time>2020-07-11T16:16:12Z</time>
      </trkpt>
      <trkpt lat="45.05238" lon="6.22824">
        <ele>2460</ele>
        <time>2020-07-11T16:16:57Z</time>
      </trkpt>
      <trkpt lat="45.0524" lon="6.22727">
        <ele>2455</ele>
        <time>2020-07-11T16:17:52Z</time>
      </trkpt>
      <trkpt lat="45.052" lon="6.22628">
        <ele>2447</ele>
        <time>2020-07-11T16:18:57Z</time>
      </trkpt>
      <trkpt lat="45.05142" lon="6.22628">
        <ele>2445</ele>
        <time>2020-07-11T16:19:43Z</time>
      </trkpt>
      <trkpt lat="45.05063" lon="6.22663">
        <ele>2443</ele>
        <time>2020-07-11T16:20:49Z</time>
      </trkpt>
      <trkpt lat="45.04975" lon="6.22696">
        <ele>2440</ele>
        <time>2020-07-11T16:22:02Z</time>
      </trkpt>
      <trkpt lat="45.04892" lon="6.22696">
        <ele>2435</ele>
        <time>2020-07-11T16:23:09Z</time>
      </trkpt>
      <trkpt lat="45.04852" lon="6.22725">
        <ele>2428</ele>
        <time>2020-07-11T16:23:45Z</time>
      </trkpt>
      <trkpt lat="45.04866" lon="6.2285">
        <ele>2417</ele>
        <time>2020-07-11T16:24:56Z</time>
      </trkpt>
      <trkpt lat="45.04911" lon="6.22903">
        <ele>2423</ele>
        <time>2020-07-11T16:25:43Z</time>
      </trkpt>
      <trkpt lat="45.04852" lon="6.22852">
        <ele>2414</ele>
        <time>2020-07-11T16:26:39Z</time>
      </trkpt>
      <trkpt lat="45.04832" lon="6.22776">
        <ele>2419</ele>
        <time>2020-07-11T16:27:24Z</time>
      </trkpt>
      <trkpt lat="45.04773" lon="6.22801">
        <ele>2400</ele>
        <time>2020-07-11T16:28:14Z</time>
      </trkpt>
      <trkpt lat="45.04735" lon="6.22921">
        <ele>2390</ele>
        <time>2020-07-11T16:29:28Z</time>
      </trkpt>
      <trkpt lat="45.0471" lon="6.23031">
        <ele>2360</ele>
        <time>2020-07-11T16:30:34Z</time>
      </trkpt>
      <trkpt lat="45.04704" lon="6.23125">
        <ele>2355</ele>
        <time>2020-07-11T16:31:27Z</time>
      </trkpt>
      <trkpt lat="45.04713" lon="6.2322">
        <ele>2378</ele>
        <time>2020-07-11T16:32:21Z</time>
      </trkpt>
      <trkpt lat="45.04747" lon="6.23299">
        <ele>2388</ele>
        <time>2020-07-11T16:33:13Z</time>
      </trkpt>
      <trkpt lat="45.04827" lon="6.23388">
        <ele>2380</ele>
        <time>2020-07-11T16:34:35Z</time>
      </trkpt>
      <trkpt lat="45.0491" lon="6.2347">
        <ele>2385</ele>
        <time>2020-07-11T16:35:56Z</time>
      </trkpt>
      <trkpt lat="45.04994" lon="6.23544">
        <ele>2384</ele>
        <time>2020-07-11T16:37:15Z</time>
      </trkpt>
      <trkpt lat="45.05095" lon="6.23607">
        <ele>2379</ele>
        <time>2020-07-11T16:38:44Z</time>
      </trkpt>
      <trkpt lat="45.05173" lon="6.23661">
        <ele>2372</ele>
        <time>2020-07-11T16:39:53Z</time>
      </trkpt>
      <trkpt lat="45.05247" lon="6.23656">
        <ele>2369</ele>
        <time>2020-07-11T16:40:52Z</time>
      </trkpt>
      <trkpt lat="45.05236" lon="6.23731">
        <ele>2363</ele>
        <time>2020-07-11T16:41:36Z</time>
      </trkpt>
      <trkpt lat="45.05301" lon="6.23803">
        <ele>2348</ele>
        <time>2020-07-11T16:42:42Z</time>
      </trkpt>
      <trkpt lat="45.05348" lon="6.23856">
        <ele>2334</ele>
        <time>2020-07-11T16:43:30Z</time>
      </trkpt>
      <trkpt lat="45.0542" lon="6.23869">
        <ele>2326</ele>
        <time>2020-07-11T16:44:28Z</time>
      </trkpt>
      <trkpt lat="45.05555" lon="6.23989">
        <ele>2310</ele>
        <time>2020-07-11T16:46:36Z</time>
      </trkpt>
      <trkpt lat="45.05643" lon="6.24065">
        <ele>2306</ele>
        <time>2020-07-11T16:47:58Z</time>
      </trkpt>
      <trkpt lat="45.05692" lon="6.24096">
        <ele>2306</ele>
        <time>2020-07-11T16:48:41Z</time>
      </trkpt>
      <trkpt lat="45.05726" lon="6.24165">
        <ele>2300</ele>
        <time>2020-07-11T16:49:29Z</time>
      </trkpt>
      <trkpt lat="45.05733" lon="6.24441">
        <ele>2268</ele>
        <time>2020-07-11T16:52:05Z</time>
      </trkpt>
      <trkpt lat="45.05696" lon="6.24731">
        <ele>2240</ele>
        <time>2020-07-11T16:54:52Z</time>
      </trkpt>
      <trkpt lat="45.05669" lon="6.24895">
        <ele>2224</ele>
        <time>2020-07-11T16:56:27Z</time>
      </trkpt>
      <trkpt lat="45.05674" lon="6.25016">
        <ele>2213</ele>
        <time>2020-07-11T16:57:35Z</time>
      </trkpt>
      <trkpt lat="45.05699" lon="6.25146">
        <ele>2204</ele>
        <time>2020-07-11T16:58:52Z</time>
      </trkpt>
      <trkpt lat="45.0573" lon="6.25243">
        <ele>2205</ele>
        <time>2020-07-11T16:59:52Z</time>
      </trkpt>
      <trkpt lat="45.0566" lon="6.25292">
        <ele>2207</ele>
        <time>2020-07-11T17:00:54Z</time>
      </trkpt>
      <trkpt lat="45.05587" lon="6.2533">
        <ele>2204</ele>
        <time>2020-07-11T17:01:57Z</time>
      </trkpt>
      <trkpt lat="45.05523" lon="6.25381">
        <ele>2206</ele>
        <time>2020-07-11T17:02:55Z</time>
      </trkpt>
      <trkpt lat="45.05436" lon="6.25427">
        <ele>2211</ele>
        <time>2020-07-11T17:04:10Z</time>
      </trkpt>
      <trkpt lat="45.05308" lon="6.25491">
        <ele>2215</ele>
        <time>2020-07-11T17:05:59Z</time>
      </trkpt>
      <trkpt lat="45.05258" lon="6.25562">
        <ele>2220</ele>
        <time>2020-07-11T17:06:55Z</time>
      </trkpt>
      <trkpt lat="45.05191" lon="6.25674">
        <ele>2216</ele>
        <time>2020-07-11T17:08:18Z</time>
      </trkpt>
      <trkpt lat="45.05184" lon="6.2582">
        <ele>2211</ele>
        <time>2020-07-11T17:09:41Z</time>
      </trkpt>
      <trkpt lat="45.05205" lon="6.26019">
        <ele>2186</ele>
        <time>2020-07-11T17:11:35Z</time>
      </trkpt>
      <trkpt lat="45.05268" lon="6.26172">
        <ele>2186</ele>
        <time>2020-07-11T17:13:15Z</time>
      </trkpt>
      <trkpt lat="45.05254" lon="6.26228">
        <ele>2177</ele>
        <time>2020-07-11T17:13:49Z</time>
      </trkpt>
      <trkpt lat="45.05272" lon="6.2634">
        <ele>2169</ele>
        <time>2020-07-11T17:14:54Z</time>
      </trkpt>
      <trkpt lat="45.05303" lon="6.26399">
        <ele>2171</ele>
        <time>2020-07-11T17:15:35Z</time>
      </trkpt>
      <trkpt lat="45.05333" lon="6.26601">
        <ele>2163</ele>
        <time>2020-07-11T17:17:32Z</time>
      </trkpt>
      <trkpt lat="45.05292" lon="6.26749">
        <ele>2145</ele>
        <time>2020-07-11T17:19:02Z</time>
      </trkpt>
      <trkpt lat="45.05263" lon="6.26909">
        <ele>2115</ele>
        <time>2020-07-11T17:20:35Z</time>
      </trkpt>
      <trkpt lat="45.05207" lon="6.2704">
        <ele>2104</ele>
        <time>2020-07-11T17:22:02Z</time>
      </trkpt>
      <trkpt lat="45.05169" lon="6.272">
        <ele>2085</ele>
        <time>2020-07-11T17:23:37Z</time>
      </trkpt>
      <trkpt lat="45.05119" lon="6.27307">
        <ele>2067</ele>
        <time>2020-07-11T17:24:50Z</time>
      </trkpt>
      <trkpt lat="45.0509" lon="6.27353">
        <ele>2058</ele>
        <time>2020-07-11T17:25:25Z</time>
      </trkpt>
      <trkpt lat="45.0521" lon="6.2737">
        <ele>2027</ele>
        <time>2020-07-11T17:27:01Z</time>
      </trkpt>
      <trkpt lat="45.0527" lon="6.27374">
        <ele>2001</ele>
        <time>2020-07-11T17:27:49Z</time>
      </trkpt>
      <trkpt lat="45.05276" lon="6.2746">
        <ele>1982</ele>
        <time>2020-07-11T17:28:38Z</time>
      </trkpt>
      <trkpt lat="45.05361" lon="6.27411">
        <ele>1955</ele>
        <time>2020-07-11T17:29:52Z</time>
      </trkpt>
      <trkpt lat="45.05401" lon="6.27355">
        <ele>1947</ele>
        <time>2020-07-11T17:30:37Z</time>
      </trkpt>
      <trkpt lat="45.05544" lon="6.2729">
        <ele>1920</ele>
        <time>2020-07-11T17:32:37Z</time>
      </trkpt>
      <trkpt lat="45.05615" lon="6.27256">
        <ele>1925</ele>
        <time>2020-07-11T17:33:37Z</time>
      </trkpt>
      <trkpt lat="45.05667" lon="6.2735">
        <ele>1901</ele>
        <time>2020-07-11T17:34:45Z</time>
      </trkpt>
      <trkpt lat="45.05706" lon="6.27456">
        <ele>1875</ele>
        <time>2020-07-11T17:35:52Z</time>
      </trkpt>
      <trkpt lat="45.05747" lon="6.27559">
        <ele>1848</ele>
        <time>2020-07-11T17:36:59Z</time>
      </trkpt>
      <trkpt lat="45.05777" lon="6.27651">
        <ele>1827</ele>
        <time>2020-07-11T17:37:56Z</time>
      </trkpt>
      <trkpt lat="45.05706" lon="6.27709">
        <ele>1809</ele>
        <time>2020-07-11T17:39:02Z</time>
      </trkpt>
      <trkpt lat="45.05732" lon="6.27726">
        <ele>1805</ele>
        <time>2020-07-11T17:39:25Z</time>
      </trkpt>
      <trkpt lat="45.05682" lon="6.27829">
        <ele>1778</ele>
        <time>2020-07-11T17:40:36Z</time>
      </trkpt>
      <trkpt lat="45.05688" lon="6.279">
        <ele>1761</ele>
        <time>2020-07-11T17:41:16Z</time>
      </trkpt>
      <trkpt lat="45.05709" lon="6.27968">
        <ele>1748</ele>
        <time>2020-07-11T17:41:58Z</time>
      </trkpt>
      <trkpt lat="45.05705" lon="6.27994">
        <ele>1744</ele>
        <time>2020-07-11T17:42:13Z</time>
      </trkpt>
      <trkpt lat="45.05693" lon="6.28061">
        <ele>1746</ele>
        <time>2020-07-11T17:42:52Z</time>
      </trkpt>
      <trkpt lat="45.05618" lon="6.28194">
        <ele>1753</ele>
        <time>2020-07-11T17:44:29Z</time>
      </trkpt>
      <trkpt lat="45.05476" lon="6.28404">
        <ele>1778</ele>
        <time>2020-07-11T17:47:13Z</time>
      </trkpt>
      <trkpt lat="45.05776" lon="6.28149">
        <ele>1790</ele>
        <time>2020-07-11T17:51:53Z</time>
      </trkpt>
      <trkpt lat="45.05932" lon="6.28082">
        <ele>1798</ele>
        <time>2020-07-11T17:54:04Z</time>
      </trkpt>
    </trkseg>
  </trk>
</gpx>